Time;durP1;ratioP1;P1;durP2;ratioP2;P2;SDS_P1;SDS_P2;PMS_P1;PMS_P2;Temp;Humidity;BMP_temperature;BMP_pressure;BME280_temperature;BME280_humidity;BME280_pressure;Samples;Min_cycle;Max_cycle;Signal;HPM_P1;HPM_P2
2021/12/03 00:00:36;;;;;;;10.80;6.68;;;22.60;55.60;;;;;;5056686;28;20049;-70
2021/12/03 00:03:02;;;;;;;8.85;5.60;;;22.40;55.40;;;;;;5056534;28;20064;-70
2021/12/03 00:05:29;;;;;;;8.20;5.68;;;22.40;55.40;;;;;;5056786;28;20124;-71
2021/12/03 00:07:56;;;;;;;8.50;5.47;;;22.50;55.40;;;;;;5057340;28;20017;-70
2021/12/03 00:10:25;;;;;;;8.90;5.30;;;22.40;55.30;;;;;;5056065;28;20033;-70
2021/12/03 00:12:52;;;;;;;9.43;5.32;;;22.40;55.30;;;;;;5056505;28;20045;-71
2021/12/03 00:15:20;;;;;;;8.75;5.72;;;22.30;55.20;;;;;;5056590;28;20080;-70
2021/12/03 00:17:47;;;;;;;9.75;5.07;;;22.50;55.40;;;;;;5056519;28;20045;-70
2021/12/03 00:20:14;;;;;;;10.98;5.35;;;22.40;55.20;;;;;;5056321;28;20041;-70
2021/12/03 00:22:42;;;;;;;8.88;5.38;;;22.40;55.20;;;;;;5056249;28;20045;-70
2021/12/03 00:25:09;;;;;;;7.82;5.57;;;22.50;55.20;;;;;;5056384;28;20037;-70
2021/12/03 00:27:36;;;;;;;8.80;5.82;;;22.50;55.20;;;;;;5056636;28;20043;-69
2021/12/03 00:30:04;;;;;;;9.20;5.20;;;22.60;55.10;;;;;;5054116;28;20049;-70
2021/12/03 00:32:30;;;;;;;8.68;5.20;;;22.60;55.10;;;;;;5036471;28;20046;-70
2021/12/03 00:34:56;;;;;;;11.13;5.07;;;22.60;55.10;;;;;;5052409;28;20070;-70
2021/12/03 00:37:23;;;;;;;7.78;5.38;;;22.50;55.00;;;;;;5036560;28;20109;-70
2021/12/03 00:39:49;;;;;;;9.25;5.55;;;22.50;54.90;;;;;;5051579;28;20045;-70
2021/12/03 00:42:17;;;;;;;8.98;5.88;;;22.60;54.90;;;;;;5076174;28;20049;-70
2021/12/03 00:44:50;;;;;;;8.73;5.03;;;22.50;55.00;;;;;;5076221;28;20041;-70
2021/12/03 00:47:16;;;;;;;9.07;5.90;;;22.60;54.90;;;;;;5076485;28;20066;-70
2021/12/03 00:49:42;;;;;;;6.88;4.60;;;22.50;54.80;;;;;;5076303;28;20095;-70
2021/12/03 00:52:08;;;;;;;10.15;5.38;;;22.60;54.70;;;;;;5076057;28;20045;-70
2021/12/03 00:54:35;;;;;;;9.00;5.47;;;22.40;54.80;;;;;;5076200;28;20072;-70
2021/12/03 00:57:02;;;;;;;6.60;4.85;;;22.60;54.80;;;;;;5076228;28;20040;-71
2021/12/03 00:59:28;;;;;;;8.65;5.00;;;22.40;54.80;;;;;;5076111;28;20079;-70
2021/12/03 01:01:55;;;;;;;7.78;5.65;;;22.30;55.00;;;;;;5077773;28;20041;-70
2021/12/03 01:04:24;;;;;;;8.02;4.95;;;22.40;55.00;;;;;;5080066;28;20037;-71
2021/12/03 01:06:50;;;;;;;8.40;4.53;;;22.30;55.00;;;;;;5079982;28;20071;-70
2021/12/03 01:09:17;;;;;;;7.85;4.80;;;22.40;54.70;;;;;;5079926;28;20040;-70
2021/12/03 01:11:43;;;;;;;6.97;4.78;;;22.40;54.60;;;;;;5079962;28;20069;-70
2021/12/03 01:14:10;;;;;;;6.80;4.80;;;22.30;54.70;;;;;;5079718;28;20048;-70
2021/12/03 01:16:36;;;;;;;6.05;4.00;;;22.40;54.70;;;;;;5079890;28;20055;-70
2021/12/03 01:19:03;;;;;;;6.30;4.13;;;22.40;54.70;;;;;;5079759;28;20044;-70
2021/12/03 01:21:29;;;;;;;5.88;4.47;;;22.50;54.50;;;;;;5079493;28;20047;-70
2021/12/03 01:23:56;;;;;;;8.32;4.95;;;22.60;54.30;;;;;;5079453;28;20052;-70
2021/12/03 01:26:23;;;;;;;11.75;5.00;;;22.60;53.80;;;;;;5079539;28;20040;-71
2021/12/03 01:28:50;;;;;;;8.93;4.45;;;22.60;54.00;;;;;;5079560;28;20056;-70
2021/12/03 01:31:17;;;;;;;9.88;4.88;;;22.60;54.40;;;;;;5079429;28;20099;-70
2021/12/03 01:33:46;;;;;;;8.93;5.32;;;22.60;54.40;;;;;;5079063;28;20109;-70
2021/12/03 01:36:14;;;;;;;7.30;5.03;;;22.60;54.50;;;;;;5079507;28;20056;-70
2021/12/03 01:38:40;;;;;;;7.07;4.68;;;22.40;54.60;;;;;;5079469;28;20049;-70
2021/12/03 01:41:06;;;;;;;7.70;5.10;;;22.40;54.70;;;;;;5079120;28;20108;-70
2021/12/03 01:43:33;;;;;;;11.95;6.60;;;22.50;54.80;;;;;;5059705;28;20037;-70
2021/12/03 01:46:02;;;;;;;7.53;5.10;;;22.50;54.70;;;;;;5059274;28;20044;-70
2021/12/03 01:48:29;;;;;;;6.88;4.57;;;22.40;54.60;;;;;;5059163;28;20049;-70
2021/12/03 01:50:56;;;;;;;6.57;4.38;;;22.40;54.60;;;;;;5059280;28;20045;-70
2021/12/03 01:53:25;;;;;;;6.13;4.97;;;22.40;54.60;;;;;;5059013;28;20049;-70
2021/12/03 01:55:54;;;;;;;10.50;5.80;;;22.30;54.50;;;;;;5059003;28;20034;-70
2021/12/03 01:58:20;;;;;;;7.88;4.47;;;22.60;54.40;;;;;;5059067;28;20053;-70
2021/12/03 02:01:08;;;;;;;7.95;4.78;;;22.50;54.50;;;;;;5058982;28;20124;-70
2021/12/03 02:03:37;;;;;;;5.07;4.05;;;22.40;54.20;;;;;;5058747;28;20092;-70
2021/12/03 02:06:06;;;;;;;8.68;4.78;;;22.50;54.30;;;;;;5058937;28;20045;-70
2021/12/03 02:08:32;;;;;;;7.07;4.43;;;22.30;54.20;;;;;;5058626;28;20072;-71
2021/12/03 02:10:58;;;;;;;9.65;5.13;;;22.40;54.40;;;;;;5058683;28;20041;-71
2021/12/03 02:13:24;;;;;;;7.22;4.72;;;22.40;54.40;;;;;;5058534;28;20080;-71
2021/12/03 02:15:52;;;;;;;7.53;5.28;;;22.30;54.60;;;;;;5058549;28;20056;-70
2021/12/03 02:18:18;;;;;;;8.52;5.10;;;22.20;54.30;;;;;;5058639;28;20045;-70
2021/12/03 02:20:49;;;;;;;6.40;4.57;;;22.30;54.50;;;;;;5058475;28;20133;-70
2021/12/03 02:23:16;;;;;;;7.20;5.13;;;22.20;54.40;;;;;;5058361;28;20042;-71
2021/12/03 02:25:43;;;;;;;6.25;4.50;;;22.20;54.50;;;;;;5058563;28;20064;-70
2021/12/03 02:28:10;;;;;;;10.68;5.30;;;22.20;54.70;;;;;;5058613;28;20043;-70
2021/12/03 02:30:37;;;;;;;7.68;5.07;;;22.10;54.70;;;;;;5058809;28;20041;-70
2021/12/03 02:33:03;;;;;;;7.00;5.38;;;22.10;54.70;;;;;;5060958;28;20045;-70
2021/12/03 02:35:30;;;;;;;7.78;5.40;;;22.00;54.80;;;;;;5058370;28;20041;-70
2021/12/03 02:37:56;;;;;;;10.50;5.10;;;22.00;54.80;;;;;;5058230;28;20053;-70
2021/12/03 02:40:25;;;;;;;8.10;5.28;;;21.90;54.70;;;;;;5058036;28;20061;-72
2021/12/03 02:42:53;;;;;;;9.38;5.18;;;21.90;54.70;;;;;;5058085;28;20072;-70
2021/12/03 02:45:19;;;;;;;7.82;4.93;;;21.80;54.60;;;;;;5058040;28;20046;-72
2021/12/03 02:47:46;;;;;;;7.05;4.57;;;21.80;54.60;;;;;;5058278;28;20065;-70
2021/12/03 02:50:14;;;;;;;10.10;4.13;;;22.00;54.80;;;;;;5057989;28;20049;-70
2021/12/03 02:52:41;;;;;;;4.78;3.72;;;22.00;54.50;;;;;;5057831;28;20696;-70
2021/12/03 02:55:07;;;;;;;5.65;3.78;;;22.10;54.30;;;;;;5057869;28;20038;-71
2021/12/03 02:57:34;;;;;;;8.25;5.13;;;22.20;53.90;;;;;;5057820;28;20041;-71
2021/12/03 03:00:00;;;;;;;7.78;4.13;;;22.30;53.70;;;;;;5057963;28;20103;-70
2021/12/03 03:02:26;;;;;;;9.90;4.70;;;22.30;53.60;;;;;;5057723;28;20037;-71
2021/12/03 03:04:53;;;;;;;8.07;3.97;;;22.40;53.60;;;;;;5057411;28;20040;-70
2021/12/03 03:07:20;;;;;;;7.80;3.90;;;22.40;53.40;;;;;;5057887;28;20037;-70
2021/12/03 03:09:46;;;;;;;5.82;4.22;;;22.60;53.40;;;;;;5057727;28;20052;-70
2021/12/03 03:12:13;;;;;;;6.00;4.30;;;22.60;53.10;;;;;;5057166;28;20051;-70
2021/12/03 03:14:50;;;;;;;8.85;4.32;;;22.70;53.00;;;;;;5057295;28;20061;-70
2021/12/03 03:17:16;;;;;;;6.15;4.30;;;22.70;53.10;;;;;;5057552;28;20041;-70
2021/12/03 03:19:42;;;;;;;4.60;3.55;;;22.70;53.10;;;;;;5057263;28;20109;-69
2021/12/03 03:22:08;;;;;;;5.85;4.30;;;22.80;53.00;;;;;;5057491;28;20045;-70
2021/12/03 03:24:35;;;;;;;8.40;5.00;;;22.80;52.80;;;;;;5056588;28;20037;-70
2021/12/03 03:27:02;;;;;;;6.70;4.32;;;22.90;52.90;;;;;;5057416;28;20093;-70
2021/12/03 03:29:29;;;;;;;5.40;4.25;;;22.90;53.00;;;;;;5057211;28;20068;-70
2021/12/03 03:31:55;;;;;;;6.68;4.20;;;22.90;53.00;;;;;;5057238;28;20041;-70
2021/12/03 03:34:21;;;;;;;7.80;4.18;;;22.80;52.80;;;;;;5056154;28;20069;-70
2021/12/03 03:36:47;;;;;;;9.18;4.43;;;22.90;52.90;;;;;;5057300;28;20046;-70
2021/12/03 03:39:14;;;;;;;6.78;4.55;;;23.10;52.80;;;;;;5056962;28;20041;-70
2021/12/03 03:41:41;;;;;;;12.02;4.70;;;23.00;52.70;;;;;;5056946;28;20053;-70
2021/12/03 03:44:10;;;;;;;5.22;4.10;;;23.00;52.80;;;;;;5056871;28;20045;-70
2021/12/03 03:46:37;;;;;;;6.75;4.15;;;23.00;52.80;;;;;;5056960;28;20048;-72
2021/12/03 03:49:04;;;;;;;5.60;4.45;;;23.00;52.80;;;;;;5056967;28;20041;-69
2021/12/03 03:51:30;;;;;;;9.50;4.50;;;23.00;52.90;;;;;;5057097;28;20114;-70
2021/12/03 03:53:56;;;;;;;7.53;4.18;;;22.90;52.90;;;;;;5056624;28;20049;-70
2021/12/03 03:56:23;;;;;;;10.60;4.65;;;22.90;53.00;;;;;;5056974;28;20046;-70
2021/12/03 03:58:49;;;;;;;6.57;3.78;;;22.80;53.10;;;;;;5056831;28;20056;-70
2021/12/03 04:01:15;;;;;;;6.97;4.07;;;22.70;53.30;;;;;;5056494;28;20045;-70
2021/12/03 04:03:46;;;;;;;6.07;4.53;;;22.50;53.40;;;;;;5056704;28;20057;-71
2021/12/03 04:06:16;;;;;;;7.20;4.30;;;22.60;53.40;;;;;;5056949;28;20048;-70
2021/12/03 04:08:44;;;;;;;7.18;4.05;;;22.50;53.50;;;;;;5056814;28;20032;-71
2021/12/03 04:11:10;;;;;;;8.98;4.32;;;22.40;53.60;;;;;;5056700;28;20083;-70
2021/12/03 04:13:36;;;;;;;6.10;4.55;;;22.50;53.60;;;;;;5056560;28;20052;-71
2021/12/03 04:16:04;;;;;;;8.45;4.90;;;22.50;53.60;;;;;;5056629;28;20045;-69
2021/12/03 04:18:30;;;;;;;5.82;4.10;;;22.40;53.50;;;;;;5056685;28;20045;-70
2021/12/03 04:20:56;;;;;;;8.88;4.88;;;22.40;53.50;;;;;;5056404;28;20144;-70
2021/12/03 04:23:22;;;;;;;5.63;4.07;;;22.40;53.60;;;;;;5056365;28;20046;-70
2021/12/03 04:25:50;;;;;;;8.93;4.93;;;22.30;53.70;;;;;;5056557;28;20042;-70
2021/12/03 04:28:20;;;;;;;5.53;4.07;;;22.20;53.50;;;;;;5039951;28;20038;-71
2021/12/03 04:30:48;;;;;;;9.65;4.93;;;22.20;53.50;;;;;;5036837;28;20034;-71
2021/12/03 04:33:15;;;;;;;8.38;3.80;;;22.20;53.70;;;;;;5036644;28;20050;-70
2021/12/03 04:35:42;;;;;;;7.78;4.75;;;22.10;53.80;;;;;;5036381;28;20037;-73
2021/12/03 04:38:08;;;;;;;6.03;3.95;;;22.30;53.50;;;;;;5040444;28;20042;-70
2021/12/03 04:40:36;;;;;;;7.35;3.78;;;22.40;53.30;;;;;;5068061;28;20079;-71
2021/12/03 04:43:03;;;;;;;6.25;4.60;;;22.60;53.00;;;;;;5080257;28;20041;-70
2021/12/03 04:45:30;;;;;;;11.02;5.38;;;22.60;52.80;;;;;;5080438;28;20048;-70
2021/12/03 04:47:58;;;;;;;9.55;5.90;;;22.60;52.80;;;;;;5080408;28;20036;-71
2021/12/03 04:50:27;;;;;;;8.35;5.30;;;22.60;53.00;;;;;;5080252;28;20037;-70
2021/12/03 04:52:54;;;;;;;7.80;5.25;;;22.50;53.20;;;;;;5079972;28;20033;-70
2021/12/03 04:55:22;;;;;;;10.48;5.78;;;22.50;53.30;;;;;;5080063;28;20041;-70
2021/12/03 04:57:53;;;;;;;7.00;5.10;;;22.40;53.30;;;;;;5079599;28;20041;-70
2021/12/03 05:00:25;;;;;;;9.95;4.95;;;22.40;53.40;;;;;;5079960;28;20105;-71
2021/12/03 05:02:53;;;;;;;9.03;4.93;;;22.30;53.30;;;;;;5079131;28;20045;-70
2021/12/03 05:05:22;;;;;;;6.15;4.55;;;22.30;53.40;;;;;;5079165;28;20270;-70
2021/12/03 05:10:21;;;;;;;6.57;3.70;;;22.30;53.50;;;;;;5079392;28;20053;-71
2021/12/03 05:12:46;;;;;;;6.07;4.07;;;22.20;53.30;;;;;;5079078;28;20064;-71
2021/12/03 05:15:13;;;;;;;6.50;4.47;;;22.50;56.80;;;;;;5079283;28;20055;-71
2021/12/03 05:17:39;;;;;;;6.30;3.80;;;22.80;58.70;;;;;;5079215;28;20041;-73
2021/12/03 05:20:05;;;;;;;9.88;3.92;;;23.10;59.40;;;;;;5078928;28;20104;-72
2021/12/03 05:22:31;;;;;;;7.03;4.50;;;23.40;59.70;;;;;;5078957;28;20041;-72
2021/12/03 05:24:57;;;;;;;5.85;3.80;;;23.40;56.70;;;;;;5078736;28;20041;-71
2021/12/03 05:27:23;;;;;;;6.22;4.20;;;23.40;52.30;;;;;;5078834;28;20040;-70
2021/12/03 05:29:50;;;;;;;9.18;4.20;;;23.50;50.30;;;;;;5078914;28;20037;-71
2021/12/03 05:32:18;;;;;;;10.80;5.97;;;23.40;49.00;;;;;;5078687;28;20049;-68
2021/12/03 05:34:44;;;;;;;11.30;6.60;;;23.20;47.30;;;;;;5078740;28;20072;-68
2021/12/03 05:37:11;;;;;;;9.00;5.60;;;23.20;47.00;;;;;;5078601;28;20041;-68
2021/12/03 05:39:38;;;;;;;8.95;5.90;;;23.10;47.20;;;;;;5078523;28;20053;-70
2021/12/03 05:42:05;;;;;;;7.38;4.65;;;23.20;47.70;;;;;;5078293;28;20066;-71
2021/12/03 05:44:31;;;;;;;6.32;4.35;;;23.10;48.40;;;;;;5078416;28;20048;-70
2021/12/03 05:46:59;;;;;;;9.43;5.13;;;23.00;48.90;;;;;;5078055;28;20037;-70
2021/12/03 05:49:26;;;;;;;8.70;4.93;;;23.00;49.20;;;;;;5078749;28;20085;-70
2021/12/03 05:51:52;;;;;;;3.47;2.03;;;22.90;49.90;;;;;;5078546;28;20040;-70
2021/12/03 05:54:19;;;;;;;3.15;2.60;;;22.80;43.90;;;;;;5078265;28;20036;-70
2021/12/03 05:56:45;;;;;;;3.55;2.42;;;23.00;43.30;;;;;;5078617;28;20052;-71
2021/12/03 05:59:11;;;;;;;4.50;2.38;;;23.00;42.20;;;;;;5074228;28;20076;-68
2021/12/03 06:01:37;;;;;;;4.15;2.47;;;22.90;41.60;;;;;;5067240;28;20049;-70
2021/12/03 06:04:05;;;;;;;3.97;2.80;;;22.90;40.20;;;;;;5067385;28;20033;-70
2021/12/03 06:06:31;;;;;;;4.22;2.47;;;22.90;39.70;;;;;;5069845;28;20045;-68
2021/12/03 06:08:59;;;;;;;4.07;2.53;;;22.90;39.80;;;;;;5068870;28;20056;-69
2021/12/03 06:11:26;;;;;;;5.03;2.40;;;22.90;41.70;;;;;;5068108;28;20073;-69
2021/12/03 06:13:53;;;;;;;4.68;3.40;;;22.90;41.60;;;;;;5065380;28;20045;-68
2021/12/03 06:16:19;;;;;;;3.42;2.85;;;23.00;42.60;;;;;;5068051;28;20064;-70
2021/12/03 06:18:45;;;;;;;3.13;1.85;;;22.90;43.20;;;;;;5066504;28;20065;-70
2021/12/03 06:21:12;;;;;;;4.43;2.78;;;23.10;43.50;;;;;;5068999;28;20075;-70
2021/12/03 06:23:39;;;;;;;3.67;2.85;;;23.00;42.30;;;;;;5066488;28;20069;-71
2021/12/03 06:26:06;;;;;;;4.25;3.15;;;22.90;42.10;;;;;;5065701;28;20041;-71
2021/12/03 06:28:33;;;;;;;3.55;2.60;;;23.00;42.40;;;;;;5070986;28;20051;-69
2021/12/03 06:30:59;;;;;;;4.18;2.70;;;23.20;42.70;;;;;;5070598;28;20044;-71
2021/12/03 06:33:26;;;;;;;7.47;4.22;;;23.20;43.80;;;;;;5077683;28;20045;-71
2021/12/03 06:35:52;;;;;;;8.85;4.95;;;23.30;52.90;;;;;;5077367;28;20045;-72
2021/12/03 06:38:19;;;;;;;13.93;5.82;;;23.30;53.60;;;;;;5077627;28;20048;-71
2021/12/03 06:40:47;;;;;;;10.13;5.55;;;23.30;58.00;;;;;;5077435;28;20096;-73
2021/12/03 06:43:13;;;;;;;8.98;5.10;;;23.30;53.40;;;;;;5077413;28;20037;-71
2021/12/03 06:45:39;;;;;;;8.75;5.63;;;23.20;55.30;;;;;;5077295;28;20063;-73
2021/12/03 06:48:06;;;;;;;11.30;6.07;;;23.10;55.90;;;;;;5077497;28;20036;-71
2021/12/03 06:50:32;;;;;;;12.07;5.55;;;23.10;56.50;;;;;;5077453;28;20032;-71
2021/12/03 06:53:07;;;;;;;9.13;5.75;;;23.10;56.80;;;;;;5077356;28;20066;-72
2021/12/03 06:55:43;;;;;;;6.30;3.85;;;22.90;56.90;;;;;;5073603;28;20048;-72
2021/12/03 06:58:10;;;;;;;9.70;5.00;;;23.10;57.30;;;;;;5056626;28;20037;-72
2021/12/03 07:00:37;;;;;;;8.25;4.97;;;23.10;57.30;;;;;;5056122;28;20065;-71
2021/12/03 07:03:03;;;;;;;10.88;4.05;;;23.00;56.40;;;;;;5089602;28;20092;-75
2021/12/03 07:05:29;;;;;;;7.32;4.30;;;23.10;57.20;;;;;;5056849;28;20030;-71
2021/12/03 07:07:55;;;;;;;11.38;4.72;;;23.10;57.80;;;;;;5057001;28;20042;-73
2021/12/03 07:10:21;;;;;;;7.60;4.35;;;23.10;57.90;;;;;;5089393;28;20101;-71
2021/12/03 07:12:47;;;;;;;7.03;5.20;;;23.00;57.60;;;;;;5056777;28;20041;-72
2021/12/03 07:15:14;;;;;;;15.45;5.05;;;23.10;58.00;;;;;;5056619;28;20040;-70
2021/12/03 07:17:40;;;;;;;11.05;5.68;;;23.00;58.00;;;;;;5056484;28;20044;-70
2021/12/03 07:20:08;;;;;;;11.55;5.82;;;23.00;58.50;;;;;;5056753;28;20042;-72
2021/12/03 07:22:34;;;;;;;15.02;6.25;;;23.00;58.10;;;;;;5055964;28;20041;-72
2021/12/03 07:25:01;;;;;;;9.35;5.53;;;23.10;58.20;;;;;;5056116;28;20041;-70
2021/12/03 07:27:27;;;;;;;7.28;5.25;;;23.00;58.00;;;;;;5056577;28;20042;-70
2021/12/03 07:29:53;;;;;;;4.55;3.65;;;23.10;57.90;;;;;;5056534;28;20056;-69
2021/12/03 07:32:20;;;;;;;11.52;5.65;;;23.10;57.90;;;;;;5056480;28;20044;-69
2021/12/03 07:34:47;;;;;;;9.48;4.40;;;23.10;57.60;;;;;;5056073;28;20041;-70
2021/12/03 07:37:13;;;;;;;9.90;5.78;;;23.00;58.10;;;;;;5056349;28;20091;-71
2021/12/03 07:39:40;;;;;;;7.88;5.10;;;23.00;58.00;;;;;;5062316;28;20413;-72
2021/12/03 07:42:07;;;;;;;7.78;5.45;;;23.00;58.50;;;;;;5076261;28;20048;-71
2021/12/03 07:44:34;;;;;;;7.88;5.10;;;23.10;58.30;;;;;;5076146;28;20037;-69
2021/12/03 07:47:00;;;;;;;8.27;4.93;;;22.90;58.90;;;;;;5076054;28;20045;-70
2021/12/03 07:49:27;;;;;;;8.15;4.50;;;23.00;59.00;;;;;;5076288;28;20033;-69
2021/12/03 07:51:54;;;;;;;10.77;5.80;;;22.90;58.80;;;;;;5076156;28;20078;-70
2021/12/03 07:54:21;;;;;;;9.10;5.20;;;23.00;58.60;;;;;;5091893;28;20047;-70
2021/12/03 07:56:47;;;;;;;14.60;6.20;;;22.90;58.40;;;;;;5076186;28;20036;-68
2021/12/03 07:59:13;;;;;;;11.32;5.55;;;23.00;58.50;;;;;;5075934;28;20037;-68
2021/12/03 08:01:44;;;;;;;10.15;5.95;;;23.00;58.40;;;;;;5076090;28;20090;-68
2021/12/03 08:04:12;;;;;;;17.98;6.40;;;22.90;58.40;;;;;;5075967;28;20036;-67
2021/12/03 08:06:40;;;;;;;9.23;5.72;;;22.90;58.30;;;;;;5075816;28;20029;-69
2021/12/03 08:09:07;;;;;;;14.00;6.88;;;22.90;57.90;;;;;;5075616;28;20822;-69
2021/12/03 08:11:36;;;;;;;13.90;6.90;;;22.90;57.70;;;;;;5075134;28;20098;-67
2021/12/03 08:14:02;;;;;;;12.30;6.07;;;23.00;57.80;;;;;;5075103;28;20056;-66
2021/12/03 08:16:28;;;;;;;11.73;5.93;;;23.10;57.80;;;;;;5075635;28;20049;-65
2021/12/03 08:18:54;;;;;;;12.60;5.75;;;23.00;57.40;;;;;;5075850;28;20063;-64
2021/12/03 08:21:21;;;;;;;8.48;5.63;;;23.10;57.40;;;;;;5075610;28;20055;-65
2021/12/03 08:23:48;;;;;;;10.57;5.85;;;23.20;57.50;;;;;;5075973;28;20049;-65
2021/12/03 08:26:15;;;;;;;11.95;6.10;;;23.20;57.50;;;;;;5075620;28;20037;-65
2021/12/03 08:28:41;;;;;;;13.88;5.78;;;23.10;59.10;;;;;;5058900;28;20051;-65
2021/12/03 08:31:11;;;;;;;9.73;4.72;;;23.00;58.80;;;;;;5071837;28;20077;-66
2021/12/03 08:33:38;;;;;;;12.05;4.43;;;22.90;59.10;;;;;;5055865;28;20037;-68
2021/12/03 08:36:04;;;;;;;6.25;3.75;;;23.00;58.70;;;;;;5055459;28;20056;-70
2021/12/03 08:38:30;;;;;;;10.27;3.50;;;23.10;58.40;;;;;;5055840;28;20045;-72
2021/12/03 08:40:56;;;;;;;10.52;3.53;;;23.20;57.70;;;;;;5055577;28;20802;-71
2021/12/03 08:43:22;;;;;;;1.98;1.50;;;23.30;55.40;;;;;;5055544;28;20051;-68
2021/12/03 08:45:53;;;;;;;6.30;3.55;;;23.30;53.60;;;;;;5055260;28;20055;-67
2021/12/03 08:48:22;;;;;;;7.43;3.95;;;23.30;51.30;;;;;;5055531;28;20037;-68
2021/12/03 08:51:11;;;;;;;5.70;4.00;;;23.20;48.90;;;;;;5055660;28;20049;-67
2021/12/03 08:56:21;;;;;;;2.03;1.15;;;23.20;47.30;;;;;;5042633;28;20056;-69
2021/12/03 08:58:47;;;;;;;5.75;3.60;;;23.20;41.30;;;;;;5035730;28;20053;-68
2021/12/03 09:01:14;;;;;;;10.70;4.95;;;23.20;41.00;;;;;;5029157;28;20045;-70
2021/12/03 09:03:40;;;;;;;8.77;4.43;;;23.30;40.90;;;;;;5034239;28;20056;-66
2021/12/03 09:06:06;;;;;;;11.15;6.68;;;23.20;41.10;;;;;;5067410;28;20065;-65
2021/12/03 09:08:32;;;;;;;11.57;6.85;;;23.20;36.20;;;;;;5035544;28;20050;-67
2021/12/03 09:10:58;;;;;;;11.77;6.75;;;23.00;36.10;;;;;;5021205;28;20046;-67
2021/12/03 09:13:25;;;;;;;12.82;6.85;;;22.90;39.10;;;;;;5016527;28;20053;-67
2021/12/03 09:16:00;;;;;;;8.65;5.47;;;22.90;40.20;;;;;;5015938;28;20137;-67
2021/12/03 09:18:30;;;;;;;13.18;6.35;;;22.90;40.10;;;;;;5015730;28;20038;-68
2021/12/03 09:21:02;;;;;;;16.08;6.50;;;22.90;39.30;;;;;;5015792;28;20061;-69
2021/12/03 09:26:06;;;;;;;5.63;3.92;;;22.90;41.10;;;;;;5058411;28;20038;-72
2021/12/03 09:28:34;;;;;;;9.82;7.28;;;23.00;42.20;;;;;;5039307;28;20045;-68
2021/12/03 09:31:00;;;;;;;7.22;6.05;;;23.10;40.10;;;;;;5038847;28;20050;-70
2021/12/03 09:33:29;;;;;;;4.93;3.60;;;23.00;39.40;;;;;;5038873;28;20113;-69
2021/12/03 09:36:00;;;;;;;2.88;1.80;;;23.10;40.20;;;;;;5038516;28;20057;-69
2021/12/03 09:38:31;;;;;;;3.83;2.70;;;23.30;41.60;;;;;;5038604;28;20046;-69
2021/12/03 09:41:07;;;;;;;12.70;3.92;;;23.20;43.80;;;;;;5055497;28;20049;-69
2021/12/03 09:43:37;;;;;;;2.67;2.38;;;23.30;45.80;;;;;;5058695;28;20041;-71
2021/12/03 09:46:16;;;;;;;4.47;2.50;;;23.40;49.30;;;;;;5058391;28;20045;-67
2021/12/03 09:51:23;;;;;;;5.95;3.38;;;23.60;41.10;;;;;;5058466;28;20103;-69
2021/12/03 09:56:23;;;;;;;3.53;2.75;;;23.50;37.60;;;;;;5058230;28;20045;-69
2021/12/03 10:14:42;;;;;;;5.30;2.60;;;23.50;44.90;;;;;;5057951;28;20118;-68
2021/12/03 10:20:00;;;;;;;2.47;1.80;;;23.50;47.30;;;;;;5057922;28;20033;-68
2021/12/03 10:35:37;;;;;;;3.80;2.22;;;23.30;47.50;;;;;;5056271;28;20041;-68
2021/12/03 10:43:32;;;;;;;6.72;2.83;;;23.80;51.70;;;;;;5057621;28;20038;-68
2021/12/03 10:51:54;;;;;;;2.20;2.05;;;23.70;48.10;;;;;;5052645;28;20045;-70
2021/12/03 11:00:49;;;;;;;10.55;5.75;;;23.80;48.60;;;;;;5017423;28;20076;-69
2021/12/03 12:18:48;;;;;;;1.63;1.45;;;23.40;51.90;;;;;;5036065;28;20056;-70
2021/12/03 12:30:18;;;;;;;4.25;1.55;;;23.20;50.30;;;;;;5055775;28;20093;-69
2021/12/03 13:24:10;;;;;;;1.80;1.55;;;23.00;55.80;;;;;;5057563;28;20037;-69
2021/12/03 14:41:18;;;;;;;4.05;1.63;;;22.90;62.20;;;;;;5066311;28;20060;-68
2021/12/03 14:44:05;;;;;;;18.67;2.97;;;23.30;56.30;;;;;;5065901;28;20045;-67
2021/12/03 14:47:00;;;;;;;5.10;3.10;;;23.70;52.20;;;;;;5065420;28;20067;-67
2021/12/03 14:52:19;;;;;;;4.18;3.10;;;23.80;56.50;;;;;;5064128;28;20110;-66
2021/12/03 14:57:44;;;;;;;4.35;2.25;;;23.80;57.20;;;;;;5065876;28;20077;-67
2021/12/03 15:00:32;;;;;;;5.07;3.10;;;23.70;57.20;;;;;;5065035;28;20041;-66
2021/12/03 15:08:33;;;;;;;1.77;1.63;;;23.60;56.60;;;;;;5063621;28;20045;-67
2021/12/03 15:27:14;;;;;;;3.22;2.25;;;23.60;49.70;;;;;;5066591;28;20036;-66
2021/12/03 15:32:25;;;;;;;3.78;2.55;;;23.40;46.00;;;;;;5066606;28;20057;-66
2021/12/03 15:35:02;;;;;;;4.00;3.03;;;23.20;48.30;;;;;;5046374;28;20056;-66
2021/12/03 15:37:52;;;;;;;3.95;3.05;;;23.10;47.80;;;;;;5065115;28;20045;-67
2021/12/03 16:04:50;;;;;;;252.45;55.70;;;23.90;48.60;;;;;;5051003;28;20046;-67
2021/12/03 16:20:46;;;;;;;5.45;3.60;;;24.50;49.10;;;;;;5055110;28;20045;-67
2021/12/03 16:52:49;;;;;;;8.80;4.90;;;23.10;53.40;;;;;;5067580;28;20048;-69
2021/12/03 16:55:17;;;;;;;8.48;4.53;;;23.00;50.80;;;;;;5070432;28;20049;-67
2021/12/03 16:57:44;;;;;;;6.45;4.50;;;22.90;54.30;;;;;;5067358;28;20053;-69
2021/12/03 17:00:40;;;;;;;7.07;4.28;;;22.80;53.60;;;;;;5069031;28;20128;-68
2021/12/03 17:08:33;;;;;;;4.35;3.90;;;22.90;58.20;;;;;;5043348;28;20046;-69
2021/12/03 17:53:58;;;;;;;10.23;4.78;;;23.20;57.40;;;;;;5077899;28;20045;-71
2021/12/03 17:56:25;;;;;;;7.40;4.45;;;23.20;57.50;;;;;;5078313;28;20056;-71
2021/12/03 17:59:17;;;;;;;12.70;5.40;;;23.10;56.70;;;;;;5078371;28;20049;-72
2021/12/03 18:04:38;;;;;;;12.35;5.78;;;23.30;57.90;;;;;;5078383;28;20048;-70
2021/12/03 18:51:30;;;;;;;8.82;4.65;;;22.90;59.90;;;;;;5077379;28;20049;-70
2021/12/03 18:56:47;;;;;;;8.15;4.97;;;22.90;59.70;;;;;;5076730;28;20041;-70
2021/12/03 18:59:14;;;;;;;8.05;5.43;;;22.90;59.90;;;;;;5077096;28;20055;-69
2021/12/03 19:01:40;;;;;;;9.32;5.25;;;23.00;60.10;;;;;;5077195;28;20051;-70
2021/12/03 19:09:25;;;;;;;9.02;5.40;;;22.90;59.90;;;;;;5076963;28;20068;-70
2021/12/03 19:12:06;;;;;;;8.43;4.72;;;23.10;60.00;;;;;;5077044;28;20049;-70
2021/12/03 19:14:37;;;;;;;7.43;4.40;;;23.10;60.20;;;;;;5075071;28;20060;-69
2021/12/03 19:17:05;;;;;;;7.00;4.53;;;23.00;60.30;;;;;;5074996;28;20041;-70
2021/12/03 19:19:36;;;;;;;7.72;5.45;;;23.00;60.10;;;;;;5075274;28;20052;-70
2021/12/03 19:22:04;;;;;;;6.38;5.00;;;23.10;60.00;;;;;;5059196;28;20111;-70
2021/12/03 19:24:32;;;;;;;7.20;5.15;;;23.10;60.10;;;;;;5076795;28;20036;-68
2021/12/03 19:26:59;;;;;;;11.38;5.60;;;23.00;60.00;;;;;;5076341;28;20044;-67
2021/12/03 19:29:25;;;;;;;8.90;5.88;;;23.00;60.40;;;;;;5076541;28;20064;-68
2021/12/03 19:31:52;;;;;;;9.35;4.93;;;23.00;59.00;;;;;;5076837;28;20045;-68
2021/12/03 19:34:21;;;;;;;12.93;5.43;;;23.10;59.80;;;;;;5076409;28;20047;-67
2021/12/03 19:36:47;;;;;;;13.27;6.50;;;23.10;60.60;;;;;;5076773;28;20068;-68
2021/12/03 19:39:16;;;;;;;11.73;5.35;;;23.10;60.10;;;;;;5076417;28;20048;-68
2021/12/03 19:44:42;;;;;;;11.75;5.13;;;23.20;60.20;;;;;;5076198;28;20053;-68
2021/12/03 19:47:10;;;;;;;8.65;5.35;;;23.10;59.90;;;;;;5076391;28;20045;-69
2021/12/03 19:50:07;;;;;;;5.80;4.28;;;23.20;59.90;;;;;;5058996;28;20099;-70
2021/12/03 19:52:27;;;;;;;10.38;5.75;;;23.20;60.30;;;;;;5059036;28;20124;-69
2021/12/03 19:54:55;;;;;;;7.22;5.35;;;23.00;60.00;;;;;;5076226;28;20075;-69
2021/12/03 19:57:25;;;;;;;9.77;5.97;;;23.00;60.20;;;;;;5058829;28;20047;-69
2021/12/03 19:59:52;;;;;;;8.07;5.10;;;22.90;60.50;;;;;;5076405;28;20051;-69
2021/12/03 20:02:18;;;;;;;8.50;5.47;;;22.90;61.00;;;;;;5076178;28;20056;-69
2021/12/03 20:04:45;;;;;;;8.68;5.05;;;22.90;60.90;;;;;;5076089;28;20041;-70
2021/12/03 20:07:12;;;;;;;9.02;5.68;;;22.80;60.90;;;;;;5075806;28;20048;-69
2021/12/03 20:09:56;;;;;;;11.45;5.05;;;22.90;61.00;;;;;;5076137;28;20094;-68
2021/12/03 20:12:23;;;;;;;8.43;5.18;;;23.00;61.00;;;;;;5076215;28;20075;-67
2021/12/03 20:14:51;;;;;;;6.78;5.05;;;23.00;61.00;;;;;;5076172;28;20048;-70
2021/12/03 20:17:33;;;;;;;6.75;4.70;;;22.90;61.00;;;;;;5075928;28;20052;-70
2021/12/03 20:20:01;;;;;;;9.73;5.10;;;22.90;61.40;;;;;;5076023;28;20051;-69
2021/12/03 20:27:40;;;;;;;11.25;5.40;;;22.90;61.00;;;;;;5058578;28;20076;-68
2021/12/03 20:30:34;;;;;;;7.22;5.07;;;22.90;61.20;;;;;;5060593;28;20126;-71
2021/12/03 20:38:12;;;;;;;7.82;5.65;;;22.80;61.80;;;;;;5072880;28;20071;-69
2021/12/03 20:40:38;;;;;;;7.50;5.22;;;22.70;61.70;;;;;;5076462;28;20063;-70
2021/12/03 21:09:51;;;;;;;12.43;7.03;;;22.30;60.50;;;;;;5058784;28;20048;-69
2021/12/03 21:12:24;;;;;;;10.75;6.45;;;22.30;60.30;;;;;;5075818;28;20048;-69
2021/12/03 21:15:08;;;;;;;9.52;6.57;;;22.30;60.10;;;;;;5076257;28;20127;-69
2021/12/03 21:20:25;;;;;;;9.50;6.47;;;22.30;59.70;;;;;;5077496;28;20037;-69
2021/12/03 21:22:57;;;;;;;12.52;6.88;;;22.40;59.60;;;;;;5062293;28;20045;-69
2021/12/03 21:25:31;;;;;;;10.73;6.90;;;22.30;59.30;;;;;;5079338;28;20108;-69
2021/12/03 21:28:16;;;;;;;9.23;6.60;;;22.40;59.20;;;;;;5079689;28;20033;-69